Time;durP1;ratioP1;P1;durP2;ratioP2;P2;SDS_P1;SDS_P2;PMS_P1;PMS_P2;Temp;Humidity;BMP_temperature;BMP_pressure;BME280_temperature;BME280_humidity;BME280_pressure;Samples;Min_cycle;Max_cycle;Signal;HPM_P1;HPM_P2
2022/01/29 00:00:30;;;;;;;30.80;20.13;;;6.80;93.40;;;;;;2082062;28;20095;-89
2022/01/29 00:01:30;;;;;;;32.75;20.65;;;6.80;93.50;;;;;;2098367;28;20406;-89
2022/01/29 00:02:31;;;;;;;33.15;21.08;;;6.80;93.50;;;;;;2089082;28;20502;-89
2022/01/29 00:03:32;;;;;;;35.17;21.48;;;6.80;93.50;;;;;;2082008;28;20476;-89
2022/01/29 00:04:33;;;;;;;29.25;20.38;;;6.80;93.50;;;;;;2081768;28;20045;-90
2022/01/29 00:05:33;;;;;;;32.45;20.67;;;6.80;93.50;;;;;;2084961;28;20048;-89
2022/01/29 00:06:34;;;;;;;33.67;20.63;;;6.80;93.80;;;;;;2097782;28;20036;-89
2022/01/29 00:07:38;;;;;;;29.13;19.90;;;6.80;93.50;;;;;;2086763;28;20041;-90
2022/01/29 00:08:38;;;;;;;32.25;20.25;;;6.80;93.50;;;;;;2073754;28;20034;-88
2022/01/29 00:09:39;;;;;;;32.10;20.23;;;6.70;93.50;;;;;;2074261;28;20105;-89
2022/01/29 00:10:42;;;;;;;30.50;20.00;;;6.80;93.50;;;;;;2088171;28;20044;-89
2022/01/29 00:11:44;;;;;;;32.55;20.35;;;6.80;93.50;;;;;;2098006;28;20040;-90
2022/01/29 00:12:44;;;;;;;30.20;19.85;;;6.80;93.50;;;;;;2082879;28;20034;-90
2022/01/29 00:13:45;;;;;;;28.52;19.35;;;6.80;93.50;;;;;;2090310;28;20049;-90
2022/01/29 00:14:46;;;;;;;30.45;20.52;;;6.80;93.50;;;;;;2088923;28;20503;-89
2022/01/29 00:15:46;;;;;;;32.65;21.15;;;6.80;93.50;;;;;;2090176;28;20033;-90
2022/01/29 00:16:47;;;;;;;33.20;20.02;;;6.80;93.50;;;;;;2089579;28;20033;-90
2022/01/29 00:17:48;;;;;;;32.08;21.05;;;6.70;93.50;;;;;;2085351;28;20439;-89
2022/01/29 00:18:48;;;;;;;29.48;19.85;;;6.80;93.50;;;;;;2089055;28;20049;-90
2022/01/29 00:19:49;;;;;;;27.83;19.20;;;6.80;93.60;;;;;;2073624;28;20041;-89
2022/01/29 00:20:50;;;;;;;31.17;20.23;;;6.80;93.60;;;;;;2066842;28;20116;-90
2022/01/29 00:21:50;;;;;;;30.75;20.55;;;6.80;93.60;;;;;;2082134;28;20118;-90
2022/01/29 00:22:51;;;;;;;30.50;19.67;;;6.70;93.80;;;;;;2086730;28;20037;-90
2022/01/29 00:23:52;;;;;;;28.92;19.35;;;6.70;93.60;;;;;;2093308;28;20513;-89
2022/01/29 00:24:53;;;;;;;29.58;19.67;;;6.70;93.60;;;;;;2093299;28;20118;-90
2022/01/29 00:25:53;;;;;;;30.35;19.73;;;6.70;93.60;;;;;;2093594;28;20086;-90
2022/01/29 00:26:54;;;;;;;34.97;21.63;;;6.70;93.70;;;;;;2090125;28;20047;-90
2022/01/29 00:27:56;;;;;;;31.33;20.40;;;6.60;93.70;;;;;;2065067;28;20041;-89
2022/01/29 00:28:58;;;;;;;31.58;20.77;;;6.60;93.70;;;;;;2074216;28;20089;-89
2022/01/29 00:30:02;;;;;;;32.95;21.63;;;6.60;93.70;;;;;;2080778;28;20041;-89
2022/01/29 00:31:03;;;;;;;32.15;21.05;;;6.70;93.80;;;;;;2080581;28;20092;-90
2022/01/29 00:32:05;;;;;;;33.28;21.92;;;6.60;93.80;;;;;;2090355;28;20151;-89
2022/01/29 00:33:06;;;;;;;33.70;20.63;;;6.60;93.80;;;;;;2090198;28;20076;-89
2022/01/29 00:34:07;;;;;;;32.42;21.25;;;6.60;93.90;;;;;;2089201;28;20411;-90
2022/01/29 00:35:09;;;;;;;31.70;20.75;;;6.60;93.90;;;;;;2089961;28;20108;-90
2022/01/29 00:36:09;;;;;;;32.55;20.75;;;6.60;93.90;;;;;;2097509;28;20127;-90
2022/01/29 00:37:10;;;;;;;31.23;20.58;;;6.60;93.90;;;;;;2081749;28;20049;-90
2022/01/29 00:38:11;;;;;;;31.02;20.17;;;6.60;94.00;;;;;;2088931;28;20069;-90
2022/01/29 00:39:11;;;;;;;34.28;20.25;;;6.60;94.00;;;;;;2090007;28;20037;-90
2022/01/29 00:40:13;;;;;;;32.15;20.25;;;6.60;94.00;;;;;;2081897;28;20128;-90
2022/01/29 00:41:14;;;;;;;35.50;20.65;;;6.60;94.00;;;;;;2098651;28;20522;-89
2022/01/29 00:42:14;;;;;;;29.52;19.00;;;6.60;94.00;;;;;;2090303;28;20139;-90
2022/01/29 00:43:15;;;;;;;32.55;20.95;;;6.60;94.10;;;;;;2086920;28;20045;-90
2022/01/29 00:44:15;;;;;;;31.05;20.30;;;6.60;94.10;;;;;;2098621;28;20036;-90
2022/01/29 00:45:16;;;;;;;32.45;20.33;;;6.50;94.10;;;;;;2081314;28;20045;-90
2022/01/29 00:46:17;;;;;;;31.50;20.80;;;6.50;94.10;;;;;;2066194;28;20034;-90
2022/01/29 00:47:18;;;;;;;31.48;20.50;;;6.50;94.10;;;;;;2057569;28;20050;-90
2022/01/29 00:48:19;;;;;;;34.20;21.73;;;6.50;94.10;;;;;;2065907;28;20101;-90
2022/01/29 00:49:19;;;;;;;33.00;22.38;;;6.50;94.20;;;;;;2078943;28;20033;-90
2022/01/29 00:50:20;;;;;;;33.55;22.23;;;6.50;94.20;;;;;;2071589;28;20034;-91
2022/01/29 00:51:21;;;;;;;35.17;23.40;;;6.50;94.20;;;;;;2078070;28;20036;-90
2022/01/29 00:52:21;;;;;;;36.75;22.65;;;6.50;94.20;;;;;;2095597;28;20040;-89
2022/01/29 00:53:22;;;;;;;40.78;25.20;;;6.50;94.30;;;;;;2099755;28;20464;-91
2022/01/29 00:54:23;;;;;;;35.05;22.80;;;6.50;94.30;;;;;;2103004;28;20489;-90
2022/01/29 00:55:23;;;;;;;33.70;21.95;;;6.50;94.30;;;;;;2098625;28;20486;-91
2022/01/29 00:56:24;;;;;;;36.53;23.08;;;6.50;94.30;;;;;;2081595;28;20076;-91
2022/01/29 00:57:28;;;;;;;37.85;23.40;;;6.50;94.30;;;;;;2086497;28;20064;-89
2022/01/29 00:58:29;;;;;;;32.97;21.75;;;6.50;94.30;;;;;;2095469;28;20491;-92
2022/01/29 00:59:31;;;;;;;35.58;22.67;;;6.50;94.40;;;;;;2081339;28;20049;-91
2022/01/29 01:00:32;;;;;;;33.90;22.10;;;6.50;94.40;;;;;;2077182;28;20781;-91
2022/01/29 01:01:32;;;;;;;35.60;23.20;;;6.50;94.40;;;;;;2081065;28;20030;-91
2022/01/29 01:02:33;;;;;;;32.63;21.98;;;6.50;94.40;;;;;;2087879;28;20271;-91
2022/01/29 01:03:34;;;;;;;34.40;21.77;;;6.50;94.40;;;;;;2081549;28;20048;-91
2022/01/29 01:04:38;;;;;;;33.50;21.67;;;6.50;94.40;;;;;;2082348;28;20404;-91
2022/01/29 01:05:39;;;;;;;32.22;21.58;;;6.50;94.40;;;;;;2083160;28;20088;-91
2022/01/29 01:06:40;;;;;;;32.65;20.70;;;6.50;94.40;;;;;;2064868;28;20030;-91
2022/01/29 01:07:41;;;;;;;33.47;20.85;;;6.50;94.40;;;;;;2073911;28;20030;-90
2022/01/29 01:08:42;;;;;;;31.58;19.98;;;6.50;94.40;;;;;;2065391;28;20062;-91
2022/01/29 01:09:43;;;;;;;31.02;21.00;;;6.50;94.40;;;;;;2065367;28;20046;-90
2022/01/29 01:10:44;;;;;;;32.60;20.40;;;6.50;94.40;;;;;;2085122;28;20111;-90
2022/01/29 01:11:44;;;;;;;31.35;20.83;;;6.50;94.40;;;;;;2076308;28;20038;-91
2022/01/29 01:12:45;;;;;;;30.90;20.35;;;6.50;94.40;;;;;;2073053;28;20433;-91
2022/01/29 01:13:46;;;;;;;32.92;20.88;;;6.60;94.50;;;;;;2074322;28;20045;-91
2022/01/29 01:14:46;;;;;;;29.17;19.63;;;6.60;94.50;;;;;;2080971;28;20112;-91
2022/01/29 01:15:47;;;;;;;31.17;20.23;;;6.50;94.50;;;;;;2078047;28;20037;-91
2022/01/29 01:16:48;;;;;;;30.90;20.48;;;6.50;94.50;;;;;;2085435;28;20475;-91
2022/01/29 01:17:48;;;;;;;33.45;19.55;;;6.60;94.50;;;;;;2094935;28;20044;-91
2022/01/29 01:18:49;;;;;;;30.70;20.83;;;6.60;94.50;;;;;;2066252;28;20034;-90
2022/01/29 01:19:49;;;;;;;33.40;20.65;;;6.60;94.50;;;;;;2072827;28;20073;-91
2022/01/29 01:20:50;;;;;;;32.17;21.45;;;6.60;94.50;;;;;;2090057;28;20025;-91
2022/01/29 01:21:54;;;;;;;33.15;21.15;;;6.60;94.50;;;;;;2097928;28;20048;-91
2022/01/29 01:22:54;;;;;;;34.25;21.40;;;6.60;94.50;;;;;;2089810;28;20529;-91
2022/01/29 01:23:55;;;;;;;33.53;21.45;;;6.60;94.50;;;;;;2082033;28;20125;-91
2022/01/29 01:24:55;;;;;;;32.33;21.63;;;6.60;94.50;;;;;;2082607;28;20037;-91
2022/01/29 01:25:56;;;;;;;33.55;21.80;;;6.60;94.50;;;;;;2086889;28;20071;-91
2022/01/29 01:26:58;;;;;;;31.40;21.20;;;6.60;94.50;;;;;;2098072;28;20032;-91
2022/01/29 01:27:59;;;;;;;34.65;22.05;;;6.60;94.60;;;;;;2097185;28;20323;-90
2022/01/29 01:28:59;;;;;;;33.50;21.08;;;6.60;94.60;;;;;;2080938;28;20111;-91
2022/01/29 01:30:00;;;;;;;30.92;21.02;;;6.60;94.60;;;;;;2072974;28;20572;-91
2022/01/29 01:31:01;;;;;;;32.92;21.85;;;6.60;94.60;;;;;;2064749;28;20114;-90
2022/01/29 01:32:02;;;;;;;30.30;20.75;;;6.60;94.90;;;;;;2075775;28;20045;-91
2022/01/29 01:33:03;;;;;;;32.75;21.25;;;6.60;94.60;;;;;;2087791;28;20025;-90
2022/01/29 01:34:05;;;;;;;31.42;20.95;;;6.60;94.60;;;;;;2090329;28;20402;-90
2022/01/29 01:35:15;;;;;;;30.35;20.38;;;6.60;94.60;;;;;;2083096;28;20048;-90
2022/01/29 01:36:19;;;;;;;29.92;20.20;;;6.60;94.60;;;;;;2082536;28;20037;-91
2022/01/29 01:37:33;;;;;;;29.48;19.70;;;6.60;94.60;;;;;;2082002;28;20041;-90
2022/01/29 01:38:46;;;;;;;32.17;20.38;;;6.60;94.60;;;;;;2066096;28;20136;-91
2022/01/29 01:39:47;;;;;;;30.38;19.30;;;6.60;94.60;;;;;;2077500;28;21661;-91
2022/01/29 01:40:59;;;;;;;30.42;20.05;;;6.60;94.60;;;;;;2079576;28;20538;-91
2022/01/29 01:42:07;;;;;;;29.17;19.20;;;6.60;94.60;;;;;;2074611;28;20040;-91
2022/01/29 01:43:08;;;;;;;29.95;18.63;;;6.60;94.60;;;;;;2082658;28;20120;-91
2022/01/29 01:44:11;;;;;;;29.60;18.58;;;6.70;94.60;;;;;;2087483;28;20056;-91
2022/01/29 01:45:11;;;;;;;33.85;20.35;;;6.70;94.60;;;;;;2079061;28;20046;-90
2022/01/29 01:46:12;;;;;;;30.20;19.80;;;6.60;94.60;;;;;;2089662;28;20132;-91
2022/01/29 01:47:15;;;;;;;31.55;20.30;;;6.70;94.60;;;;;;2093817;28;20040;-91
2022/01/29 01:48:16;;;;;;;32.72;20.48;;;6.70;94.70;;;;;;2090006;28;20083;-91
2022/01/29 01:49:17;;;;;;;33.50;20.60;;;6.60;94.60;;;;;;2089972;28;20033;-90
2022/01/29 01:50:17;;;;;;;30.65;19.65;;;6.60;94.60;;;;;;2079080;28;20136;-91
2022/01/29 01:51:18;;;;;;;30.08;19.55;;;6.60;94.60;;;;;;2081270;28;20038;-91
2022/01/29 01:52:19;;;;;;;29.98;19.90;;;6.60;94.70;;;;;;2081487;28;20057;-91
2022/01/29 01:53:20;;;;;;;29.95;19.40;;;6.60;94.70;;;;;;2072526;28;20148;-90
2022/01/29 01:54:21;;;;;;;32.72;20.52;;;6.70;94.70;;;;;;2081252;28;20041;-90
2022/01/29 01:55:22;;;;;;;29.85;20.40;;;6.70;94.70;;;;;;2095837;28;20040;-90
2022/01/29 01:56:23;;;;;;;29.15;20.00;;;6.70;94.70;;;;;;2081227;28;20037;-90
2022/01/29 01:57:24;;;;;;;30.65;19.70;;;6.70;95.00;;;;;;2081398;28;20041;-91
2022/01/29 01:58:24;;;;;;;31.25;20.77;;;6.70;94.70;;;;;;2086950;28;20033;-91
2022/01/29 01:59:25;;;;;;;29.48;19.42;;;6.70;94.80;;;;;;2084409;28;20051;-90
2022/01/29 02:00:27;;;;;;;28.00;18.83;;;6.60;94.80;;;;;;2086563;28;20183;-91
2022/01/29 02:01:27;;;;;;;28.70;19.60;;;6.70;94.80;;;;;;2093889;28;20389;-91
2022/01/29 02:02:28;;;;;;;29.60;18.85;;;6.70;94.80;;;;;;2096240;28;20039;-91
2022/01/29 02:03:29;;;;;;;30.75;18.83;;;6.70;95.10;;;;;;2073093;28;20137;-91
2022/01/29 02:04:32;;;;;;;29.58;19.60;;;6.70;94.80;;;;;;2073534;28;20049;-90
2022/01/29 02:05:32;;;;;;;29.67;19.23;;;6.60;94.80;;;;;;2089627;28;20445;-91
2022/01/29 02:06:33;;;;;;;27.88;19.00;;;6.70;94.80;;;;;;2082273;28;20068;-91
2022/01/29 02:07:35;;;;;;;30.88;21.23;;;6.70;94.80;;;;;;2084244;28;20098;-90
2022/01/29 02:08:35;;;;;;;28.67;19.30;;;6.70;94.80;;;;;;2089656;28;20041;-90
2022/01/29 02:09:38;;;;;;;28.90;19.00;;;6.70;94.80;;;;;;2085874;28;20485;-90
2022/01/29 02:10:39;;;;;;;29.42;19.10;;;6.70;94.80;;;;;;2090524;28;20128;-91
2022/01/29 02:11:52;;;;;;;29.42;20.25;;;6.70;94.80;;;;;;2100176;28;20024;-90
2022/01/29 02:12:57;;;;;;;30.10;20.58;;;6.70;94.80;;;;;;2091072;28;20029;-90
2022/01/29 02:14:00;;;;;;;30.40;19.13;;;6.70;94.80;;;;;;2075297;28;20052;-90
2022/01/29 02:15:04;;;;;;;27.95;18.70;;;6.70;94.80;;;;;;2089409;28;20564;-90
2022/01/29 02:16:05;;;;;;;29.85;18.70;;;6.70;94.90;;;;;;2090423;28;20135;-90
2022/01/29 02:17:07;;;;;;;28.08;18.35;;;6.70;94.90;;;;;;2090722;28;20415;-90
2022/01/29 02:18:13;;;;;;;27.27;18.60;;;6.70;94.90;;;;;;2096888;28;20039;-91
2022/01/29 02:19:14;;;;;;;28.20;18.38;;;6.70;94.90;;;;;;2088688;28;20491;-90
2022/01/29 02:20:16;;;;;;;27.20;18.63;;;6.70;94.90;;;;;;2089972;28;20033;-90
2022/01/29 02:21:19;;;;;;;27.67;18.85;;;6.70;94.90;;;;;;2099029;28;20163;-90
2022/01/29 02:22:19;;;;;;;27.30;18.75;;;6.70;94.90;;;;;;2097414;28;20037;-91
2022/01/29 02:23:20;;;;;;;28.35;19.20;;;6.70;94.90;;;;;;2109453;28;20104;-89
2022/01/29 02:24:21;;;;;;;28.65;18.48;;;6.70;94.90;;;;;;2111812;28;20085;-91
2022/01/29 02:25:41;;;;;;;28.65;18.83;;;6.70;94.90;;;;;;2100126;28;20083;-91
2022/01/29 02:26:41;;;;;;;26.88;18.40;;;6.70;94.90;;;;;;2091834;28;20025;-91
2022/01/29 02:27:42;;;;;;;30.30;19.33;;;6.70;94.90;;;;;;2101116;28;20055;-91
2022/01/29 02:28:43;;;;;;;30.27;20.00;;;6.70;94.90;;;;;;2092165;28;20561;-91
2022/01/29 02:29:44;;;;;;;32.13;20.50;;;6.70;95.00;;;;;;2075661;28;20097;-91
2022/01/29 02:30:49;;;;;;;30.00;19.73;;;6.70;95.00;;;;;;2091087;28;20033;-91
2022/01/29 02:31:56;;;;;;;29.92;19.98;;;6.70;95.00;;;;;;2099992;28;20029;-91
2022/01/29 02:32:58;;;;;;;28.13;19.27;;;6.70;95.00;;;;;;2094217;28;20075;-91
2022/01/29 02:33:58;;;;;;;29.75;19.80;;;6.70;95.00;;;;;;2099340;28;20040;-91
2022/01/29 02:34:59;;;;;;;27.17;19.05;;;6.70;95.00;;;;;;2099282;28;20033;-92
2022/01/29 02:36:00;;;;;;;30.77;20.70;;;6.70;95.00;;;;;;2101210;28;20090;-92
2022/01/29 02:37:01;;;;;;;27.98;19.23;;;6.70;95.10;;;;;;2095262;28;20482;-91
2022/01/29 02:38:01;;;;;;;30.30;20.60;;;6.70;95.10;;;;;;2088895;28;20071;-91
2022/01/29 02:39:02;;;;;;;29.17;20.40;;;6.70;95.10;;;;;;2090845;28;20041;-91
2022/01/29 02:40:03;;;;;;;30.65;20.65;;;6.70;95.10;;;;;;2099152;28;20152;-91
2022/01/29 02:41:06;;;;;;;28.42;19.88;;;6.70;95.10;;;;;;2103996;28;20040;-91
2022/01/29 02:42:07;;;;;;;28.73;20.23;;;6.70;95.10;;;;;;2095955;28;20036;-92
2022/01/29 02:43:17;;;;;;;28.50;19.73;;;6.70;95.10;;;;;;2090965;28;20087;-91
2022/01/29 02:44:21;;;;;;;28.70;19.33;;;6.70;95.20;;;;;;2079082;28;20038;-91
2022/01/29 02:45:22;;;;;;;27.13;18.65;;;6.70;95.10;;;;;;2099329;28;20049;-91
2022/01/29 02:46:41;;;;;;;29.92;19.42;;;6.70;95.20;;;;;;2099885;28;20113;-91
2022/01/29 02:47:42;;;;;;;26.02;17.50;;;6.70;95.20;;;;;;2097765;28;20101;-91
2022/01/29 02:48:43;;;;;;;26.25;18.45;;;6.70;95.20;;;;;;2083031;28;20103;-91
2022/01/29 02:49:44;;;;;;;26.55;18.80;;;6.70;95.20;;;;;;2089017;28;20546;-91
2022/01/29 02:50:44;;;;;;;25.88;18.08;;;6.70;95.20;;;;;;2090188;28;20068;-92
2022/01/29 02:51:57;;;;;;;28.30;18.65;;;6.70;95.20;;;;;;2076561;28;20045;-92
2022/01/29 02:52:57;;;;;;;26.08;17.38;;;6.70;95.20;;;;;;2090540;28;20652;-91
2022/01/29 02:53:58;;;;;;;23.25;16.50;;;6.70;95.20;;;;;;2082904;28;20145;-91
2022/01/29 02:54:59;;;;;;;28.42;19.13;;;6.70;95.20;;;;;;2074313;28;20038;-90
2022/01/29 02:56:00;;;;;;;25.05;17.63;;;6.70;95.20;;;;;;2090480;28;20118;-91
2022/01/29 02:57:00;;;;;;;26.27;18.67;;;6.70;95.20;;;;;;2091147;28;20523;-92
2022/01/29 02:58:01;;;;;;;26.05;18.33;;;6.70;95.20;;;;;;2096989;28;20032;-92
2022/01/29 02:59:02;;;;;;;27.13;18.58;;;6.70;95.30;;;;;;2074173;28;20065;-91
2022/01/29 03:00:03;;;;;;;26.75;17.95;;;6.70;95.30;;;;;;2081878;28;20037;-92
2022/01/29 03:01:05;;;;;;;25.05;17.85;;;6.70;95.30;;;;;;2082833;28;20124;-92
2022/01/29 03:02:06;;;;;;;25.80;18.25;;;6.70;95.30;;;;;;2098757;28;20067;-92
2022/01/29 03:03:07;;;;;;;24.15;17.17;;;6.70;95.30;;;;;;2096457;28;20090;-92
2022/01/29 03:04:08;;;;;;;26.20;17.92;;;6.70;95.30;;;;;;2088539;28;20040;-92
2022/01/29 03:05:09;;;;;;;26.55;18.48;;;6.70;95.60;;;;;;2097205;28;20098;-92
2022/01/29 03:06:10;;;;;;;26.55;18.35;;;6.70;95.30;;;;;;2094503;28;20499;-92
2022/01/29 03:07:11;;;;;;;24.13;16.98;;;6.70;95.40;;;;;;2096979;28;20040;-92
2022/01/29 03:08:11;;;;;;;26.73;18.17;;;6.70;95.40;;;;;;2097016;28;20064;-92
2022/01/29 03:09:12;;;;;;;23.50;17.63;;;6.70;95.40;;;;;;2082588;28;20044;-90
2022/01/29 03:10:13;;;;;;;21.60;16.00;;;6.70;95.40;;;;;;2081607;28;20087;-92
2022/01/29 03:11:19;;;;;;;24.50;17.42;;;6.70;95.40;;;;;;2091351;28;20053;-92
2022/01/29 03:12:19;;;;;;;22.98;16.35;;;6.70;95.40;;;;;;2090801;28;20033;-92
2022/01/29 03:13:20;;;;;;;25.27;17.52;;;6.70;95.40;;;;;;2084295;28;20635;-92
2022/01/29 03:14:20;;;;;;;23.33;16.27;;;6.70;95.40;;;;;;2081373;28;20045;-92
2022/01/29 03:15:21;;;;;;;22.58;17.02;;;6.70;95.40;;;;;;2087544;28;20068;-92
2022/01/29 03:16:22;;;;;;;24.33;17.25;;;6.70;95.40;;;;;;2075668;28;20042;-93
2022/01/29 03:17:22;;;;;;;24.20;17.27;;;6.70;95.40;;;;;;2099018;28;20032;-92
2022/01/29 03:18:23;;;;;;;25.20;16.98;;;6.70;95.40;;;;;;2102716;28;20123;-92
2022/01/29 03:19:24;;;;;;;24.77;17.30;;;6.70;95.50;;;;;;2082696;28;20045;-91
2022/01/29 03:20:25;;;;;;;22.33;15.40;;;6.70;95.50;;;;;;2089560;28;20041;-92
2022/01/29 03:21:25;;;;;;;23.42;17.25;;;6.70;95.50;;;;;;2098532;28;20060;-92
2022/01/29 03:22:26;;;;;;;23.85;15.73;;;6.70;95.50;;;;;;2106497;28;20055;-92
2022/01/29 03:23:26;;;;;;;24.42;16.92;;;6.70;95.50;;;;;;2106873;28;20130;-92
2022/01/29 03:24:27;;;;;;;23.65;17.30;;;6.70;95.50;;;;;;2082161;28;20038;-92
2022/01/29 03:25:28;;;;;;;22.80;16.02;;;6.80;95.50;;;;;;2078501;28;20134;-92
2022/01/29 03:26:28;;;;;;;22.67;16.23;;;6.70;95.50;;;;;;2082252;28;20471;-92
2022/01/29 03:27:29;;;;;;;23.48;17.88;;;6.70;95.50;;;;;;2089362;28;20090;-92
2022/01/29 03:28:30;;;;;;;23.63;16.73;;;6.70;95.50;;;;;;2081378;28;20033;-92
2022/01/29 03:29:31;;;;;;;23.75;16.92;;;6.70;95.50;;;;;;2081894;28;20033;-92
2022/01/29 03:30:31;;;;;;;22.42;16.45;;;6.80;95.60;;;;;;2082402;28;20034;-92
2022/01/29 03:31:32;;;;;;;22.55;15.90;;;6.70;95.50;;;;;;2081454;28;20120;-92
2022/01/29 03:32:33;;;;;;;21.83;16.00;;;6.70;95.60;;;;;;2090723;28;20270;-92
2022/01/29 03:33:34;;;;;;;25.83;17.83;;;6.80;95.60;;;;;;2088139;28;20072;-91
2022/01/29 03:34:35;;;;;;;23.98;16.70;;;6.80;95.60;;;;;;2090690;28;20033;-92
2022/01/29 03:35:35;;;;;;;23.73;16.95;;;6.80;95.60;;;;;;2090031;28;20029;-92
2022/01/29 03:36:36;;;;;;;23.92;17.58;;;6.70;95.60;;;;;;2082659;28;20512;-92
2022/01/29 03:37:37;;;;;;;24.58;17.05;;;6.80;95.60;;;;;;2082491;28;20072;-92
2022/01/29 03:38:40;;;;;;;23.63;17.08;;;6.80;95.60;;;;;;2074748;28;20033;-93
2022/01/29 03:39:43;;;;;;;23.55;17.30;;;6.80;95.60;;;;;;2086219;28;20117;-93
2022/01/29 03:40:46;;;;;;;24.80;16.85;;;6.70;95.60;;;;;;2090076;28;20049;-92
2022/01/29 03:41:47;;;;;;;21.98;16.33;;;6.80;95.60;;;;;;2090729;28;20171;-92
2022/01/29 03:43:00;;;;;;;21.25;15.95;;;6.80;95.60;;;;;;2092821;28;20457;-91
2022/01/29 03:44:04;;;;;;;22.10;15.35;;;6.80;95.60;;;;;;2081301;28;20535;-92
2022/01/29 03:45:08;;;;;;;24.25;16.08;;;6.80;95.60;;;;;;2074887;28;20068;-92
2022/01/29 03:46:08;;;;;;;20.48;15.60;;;6.80;95.60;;;;;;2091689;28;20033;-92
2022/01/29 03:47:09;;;;;;;22.77;16.08;;;6.80;95.70;;;;;;2088922;28;20494;-92
2022/01/29 03:48:09;;;;;;;22.10;16.30;;;6.80;95.70;;;;;;2090489;28;20052;-93
2022/01/29 03:49:10;;;;;;;21.55;15.68;;;6.80;95.70;;;;;;2089722;28;20122;-92
2022/01/29 03:50:11;;;;;;;22.85;16.27;;;6.80;95.70;;;;;;2075789;28;20041;-92
2022/01/29 03:51:12;;;;;;;23.33;17.35;;;6.80;95.70;;;;;;2098689;28;20092;-93
2022/01/29 03:52:12;;;;;;;23.75;16.42;;;6.70;95.70;;;;;;2094259;28;20541;-92
2022/01/29 03:53:13;;;;;;;24.30;16.92;;;6.80;95.70;;;;;;2074731;28;20029;-92
2022/01/29 03:54:13;;;;;;;24.38;16.92;;;6.70;95.70;;;;;;2080714;28;20042;-92
2022/01/29 03:55:14;;;;;;;21.92;15.93;;;6.80;95.70;;;;;;2090559;28;20034;-92
2022/01/29 03:56:15;;;;;;;22.83;16.40;;;6.80;95.70;;;;;;2092144;28;20072;-91
2022/01/29 03:57:15;;;;;;;21.50;15.68;;;6.80;95.70;;;;;;2095261;28;20036;-92
2022/01/29 03:58:16;;;;;;;23.45;15.98;;;6.70;96.00;;;;;;2096897;28;20125;-92
2022/01/29 03:59:17;;;;;;;20.77;15.32;;;6.80;95.70;;;;;;2100675;28;20072;-93
2022/01/29 04:00:18;;;;;;;22.45;15.60;;;6.80;95.70;;;;;;2088598;28;20045;-92
2022/01/29 04:01:18;;;;;;;21.35;15.95;;;6.80;95.80;;;;;;2097937;28;20032;-91
2022/01/29 04:02:19;;;;;;;22.75;15.50;;;6.80;95.80;;;;;;2100626;28;20092;-93
2022/01/29 04:03:19;;;;;;;21.98;15.40;;;6.80;95.80;;;;;;2091931;28;20062;-92
2022/01/29 04:04:20;;;;;;;22.52;15.38;;;6.80;95.80;;;;;;2083607;28;20037;-92
2022/01/29 04:05:21;;;;;;;21.48;15.38;;;6.80;95.80;;;;;;2083001;28;20046;-92
2022/01/29 04:06:21;;;;;;;21.92;15.27;;;6.90;95.80;;;;;;2089624;28;20040;-91
2022/01/29 04:07:22;;;;;;;26.25;17.23;;;6.80;95.80;;;;;;2097430;28;20029;-92
2022/01/29 04:08:25;;;;;;;25.88;17.02;;;6.80;95.80;;;;;;2094848;28;20490;-92
2022/01/29 04:09:27;;;;;;;22.92;16.42;;;6.80;95.80;;;;;;2081080;28;20045;-91
2022/01/29 04:10:29;;;;;;;23.23;16.15;;;6.80;95.80;;;;;;2081263;28;20128;-92
2022/01/29 04:11:30;;;;;;;23.98;16.42;;;6.80;95.80;;;;;;2082594;28;20038;-92
2022/01/29 04:12:36;;;;;;;24.33;17.25;;;6.80;95.80;;;;;;2090853;28;20041;-91
2022/01/29 04:13:41;;;;;;;23.20;15.57;;;6.80;95.80;;;;;;2096960;28;20508;-92
2022/01/29 04:14:42;;;;;;;23.70;15.90;;;6.80;95.80;;;;;;2089015;28;20882;-93
2022/01/29 04:15:43;;;;;;;21.35;15.05;;;6.80;95.80;;;;;;2090422;28;20029;-92
2022/01/29 04:16:45;;;;;;;23.70;15.98;;;6.80;95.80;;;;;;2096773;28;20093;-92
2022/01/29 04:17:45;;;;;;;21.55;15.25;;;6.90;95.80;;;;;;2089236;28;20078;-92
2022/01/29 04:18:46;;;;;;;21.65;15.27;;;6.80;95.80;;;;;;2076095;28;20049;-92
2022/01/29 04:19:46;;;;;;;22.60;15.27;;;6.90;95.80;;;;;;2089311;28;20029;-91
2022/01/29 04:20:47;;;;;;;21.67;15.43;;;6.90;95.90;;;;;;2098349;28;20139;-91
2022/01/29 04:21:48;;;;;;;24.08;16.35;;;6.90;95.90;;;;;;2076448;28;20036;-92
2022/01/29 04:22:48;;;;;;;22.45;15.50;;;6.90;95.90;;;;;;2078022;28;20046;-91
2022/01/29 04:23:49;;;;;;;22.60;15.90;;;6.90;95.90;;;;;;2082114;28;20044;-92
2022/01/29 04:24:49;;;;;;;20.88;15.43;;;6.90;95.90;;;;;;2081522;28;20042;-91
2022/01/29 04:25:52;;;;;;;26.55;17.10;;;6.90;95.90;;;;;;2085644;28;20523;-92
2022/01/29 04:26:53;;;;;;;23.60;16.88;;;6.90;95.90;;;;;;2082305;28;20033;-92
2022/01/29 04:27:54;;;;;;;26.10;18.00;;;6.90;95.90;;;;;;2090416;28;20384;-91
2022/01/29 04:28:54;;;;;;;25.10;17.80;;;6.90;95.90;;;;;;2106138;28;20032;-92
2022/01/29 04:29:58;;;;;;;26.08;17.95;;;6.90;95.90;;;;;;2094391;28;20441;-92
2022/01/29 04:31:07;;;;;;;25.27;17.85;;;6.90;95.90;;;;;;2082245;28;20067;-92
2022/01/29 04:32:13;;;;;;;25.38;18.10;;;6.90;95.90;;;;;;2082377;28;20038;-91
2022/01/29 04:33:27;;;;;;;25.77;17.90;;;6.90;95.90;;;;;;2089230;28;20444;-91
2022/01/29 04:34:28;;;;;;;25.27;17.98;;;6.90;95.90;;;;;;2075619;28;20038;-93
2022/01/29 04:35:30;;;;;;;25.67;17.40;;;6.90;95.90;;;;;;2067352;28;20460;-92
2022/01/29 04:36:31;;;;;;;25.08;17.58;;;7.00;95.90;;;;;;2074659;28;20041;-92
2022/01/29 04:37:32;;;;;;;25.88;17.75;;;7.00;95.90;;;;;;2088706;28;20092;-92
2022/01/29 04:38:33;;;;;;;25.08;17.02;;;7.00;95.90;;;;;;2090301;28;20041;-92
2022/01/29 04:39:34;;;;;;;25.33;17.42;;;6.90;95.90;;;;;;2095637;28;20154;-93
2022/01/29 04:40:35;;;;;;;25.73;17.65;;;7.00;95.90;;;;;;2087665;28;20041;-92
2022/01/29 04:41:36;;;;;;;28.17;19.15;;;7.00;95.90;;;;;;2081207;28;20030;-92
2022/01/29 04:42:37;;;;;;;29.38;18.83;;;7.00;95.90;;;;;;2097518;28;20024;-91
2022/01/29 04:43:37;;;;;;;28.10;18.38;;;7.00;95.90;;;;;;2090020;28;20157;-92
2022/01/29 04:44:38;;;;;;;26.20;18.58;;;7.00;96.00;;;;;;2081859;28;20153;-92
2022/01/29 04:45:40;;;;;;;24.50;17.60;;;7.00;96.00;;;;;;2080659;28;20037;-92
2022/01/29 04:46:41;;;;;;;27.45;18.63;;;7.10;96.00;;;;;;2079770;28;20040;-92
2022/01/29 04:47:42;;;;;;;28.33;19.27;;;7.10;96.00;;;;;;2074454;28;20496;-92
2022/01/29 04:48:42;;;;;;;25.80;18.30;;;7.10;96.00;;;;;;2076765;28;20188;-92
2022/01/29 04:49:43;;;;;;;27.25;18.45;;;7.10;96.20;;;;;;2073290;28;20042;-92
2022/01/29 04:50:44;;;;;;;31.48;19.15;;;7.10;96.00;;;;;;2065430;28;20089;-92
2022/01/29 04:51:44;;;;;;;26.48;18.08;;;7.10;96.00;;;;;;2097669;28;20056;-93
2022/01/29 04:52:45;;;;;;;28.50;18.75;;;7.10;96.00;;;;;;2088343;28;20485;-91
2022/01/29 04:53:46;;;;;;;27.77;19.13;;;7.10;96.00;;;;;;2064071;28;20505;-92
2022/01/29 04:54:46;;;;;;;28.42;18.90;;;7.10;96.00;;;;;;2072506;28;20042;-92
2022/01/29 04:55:47;;;;;;;26.70;17.38;;;7.10;96.00;;;;;;2090017;28;20490;-92
2022/01/29 04:56:47;;;;;;;30.02;19.33;;;7.20;96.00;;;;;;2092348;28;20041;-91
2022/01/29 04:57:48;;;;;;;25.48;18.02;;;7.20;96.00;;;;;;2098227;28;20080;-90
2022/01/29 04:58:49;;;;;;;29.70;19.67;;;7.20;96.00;;;;;;2081618;28;20127;-92
2022/01/29 04:59:49;;;;;;;29.83;19.60;;;7.20;96.00;;;;;;2083173;28;20088;-91
2022/01/29 05:00:50;;;;;;;29.02;19.42;;;7.20;96.00;;;;;;2089965;28;20104;-91
2022/01/29 05:01:51;;;;;;;27.50;18.88;;;7.20;96.00;;;;;;2089359;28;20040;-91
2022/01/29 05:02:54;;;;;;;28.25;19.45;;;7.20;96.00;;;;;;2090053;28;20036;-92
2022/01/29 05:03:54;;;;;;;27.58;18.73;;;7.20;96.00;;;;;;2097533;28;20033;-92
2022/01/29 05:04:55;;;;;;;27.67;18.75;;;7.20;96.00;;;;;;2086363;28;20065;-91
2022/01/29 05:05:56;;;;;;;32.13;19.83;;;7.20;96.00;;;;;;2085572;28;20526;-91
2022/01/29 05:06:56;;;;;;;27.58;18.42;;;7.20;96.00;;;;;;2097690;28;20069;-92
2022/01/29 05:07:57;;;;;;;28.65;18.73;;;7.20;96.00;;;;;;2071870;28;20137;-91
2022/01/29 05:08:58;;;;;;;26.08;17.92;;;7.20;96.30;;;;;;2057296;28;20058;-92
2022/01/29 05:09:58;;;;;;;28.75;19.75;;;7.20;96.00;;;;;;2065463;28;20117;-92
2022/01/29 05:10:59;;;;;;;28.77;19.05;;;7.30;96.00;;;;;;2076122;28;20526;-92
2022/01/29 05:12:02;;;;;;;28.80;19.15;;;7.20;96.00;;;;;;2073309;28;20041;-92
2022/01/29 05:13:06;;;;;;;27.63;19.27;;;7.30;96.10;;;;;;2086170;28;20064;-93
2022/01/29 05:14:10;;;;;;;28.45;19.08;;;7.30;96.10;;;;;;2082202;28;20056;-91
2022/01/29 05:15:25;;;;;;;31.50;19.23;;;7.30;96.10;;;;;;2080434;28;20096;-91
2022/01/29 05:16:39;;;;;;;28.50;19.02;;;7.30;96.10;;;;;;2073673;28;20097;-92